sensor_id;sensor_type;location;lat;lon;timestamp;P1;durP1;ratioP1;P2;durP2;ratioP2
72949;SDS011;64868;45.710;9.590;2023-05-16T00:02:03;4.93;;;1.77;;
72949;SDS011;64868;45.710;9.590;2023-05-16T00:04:35;4.90;;;1.65;;
72949;SDS011;64868;45.710;9.590;2023-05-16T00:07:08;4.57;;;1.52;;
72949;SDS011;64868;45.710;9.590;2023-05-16T00:09:40;6.60;;;1.58;;
72949;SDS011;64868;45.710;9.590;2023-05-16T00:12:13;4.80;;;1.88;;
72949;SDS011;64868;45.710;9.590;2023-05-16T00:14:46;5.95;;;1.80;;
72949;SDS011;64868;45.710;9.590;2023-05-16T00:17:18;4.97;;;1.30;;
72949;SDS011;64868;45.710;9.590;2023-05-16T00:19:51;4.47;;;1.48;;
72949;SDS011;64868;45.710;9.590;2023-05-16T00:22:22;5.13;;;1.23;;
72949;SDS011;64868;45.710;9.590;2023-05-16T00:24:55;5.63;;;1.70;;
72949;SDS011;64868;45.710;9.590;2023-05-16T00:27:28;4.55;;;1.52;;
72949;SDS011;64868;45.710;9.590;2023-05-16T00:30:00;5.35;;;1.75;;
72949;SDS011;64868;45.710;9.590;2023-05-16T00:32:33;3.92;;;1.45;;
72949;SDS011;64868;45.710;9.590;2023-05-16T00:35:06;3.78;;;1.27;;
72949;SDS011;64868;45.710;9.590;2023-05-16T00:37:38;5.45;;;1.75;;
72949;SDS011;64868;45.710;9.590;2023-05-16T00:40:09;4.78;;;1.50;;
72949;SDS011;64868;45.710;9.590;2023-05-16T00:42:42;5.13;;;1.60;;
72949;SDS011;64868;45.710;9.590;2023-05-16T00:45:15;4.00;;;1.35;;
72949;SDS011;64868;45.710;9.590;2023-05-16T00:47:45;4.47;;;1.45;;
72949;SDS011;64868;45.710;9.590;2023-05-16T00:50:16;5.43;;;1.63;;
72949;SDS011;64868;45.710;9.590;2023-05-16T00:52:48;4.30;;;1.50;;
72949;SDS011;64868;45.710;9.590;2023-05-16T00:55:21;5.07;;;1.70;;
72949;SDS011;64868;45.710;9.590;2023-05-16T00:57:51;5.43;;;1.58;;
72949;SDS011;64868;45.710;9.590;2023-05-16T01:00:22;4.45;;;1.50;;
72949;SDS011;64868;45.710;9.590;2023-05-16T01:02:55;5.03;;;1.60;;
72949;SDS011;64868;45.710;9.590;2023-05-16T01:05:27;5.03;;;1.55;;
72949;SDS011;64868;45.710;9.590;2023-05-16T01:08:00;5.03;;;1.83;;
72949;SDS011;64868;45.710;9.590;2023-05-16T01:10:33;4.75;;;1.67;;
72949;SDS011;64868;45.710;9.590;2023-05-16T01:15:54;5.03;;;1.65;;
72949;SDS011;64868;45.710;9.590;2023-05-16T01:21:02;4.50;;;1.52;;
72949;SDS011;64868;45.710;9.590;2023-05-16T01:23:39;5.97;;;1.60;;
72949;SDS011;64868;45.710;9.590;2023-05-16T01:26:23;3.78;;;1.40;;
72949;SDS011;64868;45.710;9.590;2023-05-16T01:28:56;3.72;;;1.40;;
72949;SDS011;64868;45.710;9.590;2023-05-16T01:31:30;5.10;;;1.40;;
72949;SDS011;64868;45.710;9.590;2023-05-16T01:34:00;4.00;;;1.30;;
72949;SDS011;64868;45.710;9.590;2023-05-16T01:42:28;4.43;;;1.60;;
72949;SDS011;64868;45.710;9.590;2023-05-16T01:45:04;6.32;;;1.60;;
72949;SDS011;64868;45.710;9.590;2023-05-16T01:47:38;6.32;;;1.55;;
72949;SDS011;64868;45.710;9.590;2023-05-16T01:50:16;4.30;;;1.40;;
72949;SDS011;64868;45.710;9.590;2023-05-16T01:53:01;5.00;;;1.33;;
72949;SDS011;64868;45.710;9.590;2023-05-16T01:55:48;4.85;;;1.48;;
72949;SDS011;64868;45.710;9.590;2023-05-16T01:58:24;5.43;;;1.30;;
72949;SDS011;64868;45.710;9.590;2023-05-16T02:00:58;4.75;;;1.42;;
72949;SDS011;64868;45.710;9.590;2023-05-16T02:03:32;3.97;;;1.40;;
72949;SDS011;64868;45.710;9.590;2023-05-16T02:06:05;3.83;;;1.40;;
72949;SDS011;64868;45.710;9.590;2023-05-16T02:08:38;5.97;;;1.40;;
72949;SDS011;64868;45.710;9.590;2023-05-16T02:11:08;4.93;;;1.35;;
72949;SDS011;64868;45.710;9.590;2023-05-16T02:13:38;3.85;;;1.20;;
72949;SDS011;64868;45.710;9.590;2023-05-16T02:16:14;4.00;;;1.50;;
72949;SDS011;64868;45.710;9.590;2023-05-16T02:18:46;4.97;;;1.38;;
72949;SDS011;64868;45.710;9.590;2023-05-16T02:21:19;4.15;;;1.50;;
72949;SDS011;64868;45.710;9.590;2023-05-16T02:23:52;3.95;;;1.40;;
72949;SDS011;64868;45.710;9.590;2023-05-16T02:26:24;4.30;;;1.25;;
72949;SDS011;64868;45.710;9.590;2023-05-16T02:28:57;3.33;;;1.20;;
72949;SDS011;64868;45.710;9.590;2023-05-16T02:31:28;4.43;;;1.25;;
72949;SDS011;64868;45.710;9.590;2023-05-16T02:34:01;4.25;;;1.23;;
72949;SDS011;64868;45.710;9.590;2023-05-16T02:36:33;5.35;;;1.40;;
72949;SDS011;64868;45.710;9.590;2023-05-16T02:39:03;4.53;;;1.20;;
72949;SDS011;64868;45.710;9.590;2023-05-16T02:41:36;3.75;;;1.08;;
72949;SDS011;64868;45.710;9.590;2023-05-16T02:44:09;5.05;;;1.20;;
72949;SDS011;64868;45.710;9.590;2023-05-16T02:46:41;4.13;;;1.20;;
72949;SDS011;64868;45.710;9.590;2023-05-16T02:49:14;3.22;;;1.00;;
72949;SDS011;64868;45.710;9.590;2023-05-16T02:51:42;2.80;;;0.82;;
72949;SDS011;64868;45.710;9.590;2023-05-16T02:54:14;5.05;;;1.20;;
72949;SDS011;64868;45.710;9.590;2023-05-16T02:56:47;3.25;;;1.00;;
72949;SDS011;64868;45.710;9.590;2023-05-16T02:59:20;4.35;;;1.02;;
72949;SDS011;64868;45.710;9.590;2023-05-16T03:01:52;4.72;;;0.95;;
72949;SDS011;64868;45.710;9.590;2023-05-16T03:04:23;4.03;;;1.08;;
72949;SDS011;64868;45.710;9.590;2023-05-16T03:06:55;3.20;;;1.00;;
72949;SDS011;64868;45.710;9.590;2023-05-16T03:09:28;3.20;;;1.10;;
72949;SDS011;64868;45.710;9.590;2023-05-16T03:11:58;2.70;;;0.90;;
72949;SDS011;64868;45.710;9.590;2023-05-16T03:14:28;3.58;;;1.00;;
72949;SDS011;64868;45.710;9.590;2023-05-16T03:17:01;4.30;;;1.27;;
72949;SDS011;64868;45.710;9.590;2023-05-16T03:19:33;5.70;;;1.08;;
72949;SDS011;64868;45.710;9.590;2023-05-16T03:22:04;4.40;;;1.10;;
72949;SDS011;64868;45.710;9.590;2023-05-16T03:24:31;5.30;;;1.08;;
72949;SDS011;64868;45.710;9.590;2023-05-16T03:26:59;3.75;;;1.25;;
72949;SDS011;64868;45.710;9.590;2023-05-16T03:29:31;3.58;;;0.82;;
72949;SDS011;64868;45.710;9.590;2023-05-16T03:32:04;3.30;;;1.02;;
72949;SDS011;64868;45.710;9.590;2023-05-16T03:34:37;5.13;;;1.20;;
72949;SDS011;64868;45.710;9.590;2023-05-16T03:37:09;4.57;;;1.05;;
72949;SDS011;64868;45.710;9.590;2023-05-16T03:39:42;4.00;;;1.23;;
72949;SDS011;64868;45.710;9.590;2023-05-16T03:42:15;2.95;;;0.95;;
72949;SDS011;64868;45.710;9.590;2023-05-16T03:44:45;4.18;;;1.10;;
72949;SDS011;64868;45.710;9.590;2023-05-16T03:47:17;3.55;;;1.05;;
72949;SDS011;64868;45.710;9.590;2023-05-16T03:49:50;2.88;;;0.95;;
72949;SDS011;64868;45.710;9.590;2023-05-16T03:52:23;3.28;;;1.00;;
72949;SDS011;64868;45.710;9.590;2023-05-16T03:54:55;5.00;;;0.90;;
72949;SDS011;64868;45.710;9.590;2023-05-16T03:57:28;3.90;;;1.15;;
72949;SDS011;64868;45.710;9.590;2023-05-16T03:59:59;4.45;;;1.10;;
72949;SDS011;64868;45.710;9.590;2023-05-16T04:02:33;4.28;;;1.10;;
72949;SDS011;64868;45.710;9.590;2023-05-16T04:05:06;2.88;;;0.90;;
72949;SDS011;64868;45.710;9.590;2023-05-16T04:07:40;5.63;;;1.10;;
72949;SDS011;64868;45.710;9.590;2023-05-16T04:10:12;3.78;;;0.98;;
72949;SDS011;64868;45.710;9.590;2023-05-16T04:12:38;3.25;;;0.95;;
72949;SDS011;64868;45.710;9.590;2023-05-16T04:15:11;4.15;;;1.00;;
72949;SDS011;64868;45.710;9.590;2023-05-16T04:17:41;4.43;;;1.20;;
72949;SDS011;64868;45.710;9.590;2023-05-16T04:20:13;3.35;;;0.80;;
72949;SDS011;64868;45.710;9.590;2023-05-16T04:22:46;3.13;;;0.90;;
72949;SDS011;64868;45.710;9.590;2023-05-16T04:25:18;2.88;;;0.80;;
72949;SDS011;64868;45.710;9.590;2023-05-16T04:27:51;3.97;;;1.00;;
72949;SDS011;64868;45.710;9.590;2023-05-16T04:30:24;4.70;;;0.98;;
72949;SDS011;64868;45.710;9.590;2023-05-16T04:32:56;5.85;;;0.90;;
72949;SDS011;64868;45.710;9.590;2023-05-16T04:35:27;3.22;;;1.15;;
72949;SDS011;64868;45.710;9.590;2023-05-16T04:37:59;3.08;;;0.82;;
72949;SDS011;64868;45.710;9.590;2023-05-16T04:40:29;3.83;;;1.00;;
72949;SDS011;64868;45.710;9.590;2023-05-16T04:42:59;7.82;;;1.20;;
72949;SDS011;64868;45.710;9.590;2023-05-16T04:45:32;4.00;;;0.80;;
72949;SDS011;64868;45.710;9.590;2023-05-16T04:48:04;3.88;;;1.23;;
72949;SDS011;64868;45.710;9.590;2023-05-16T04:50:35;6.32;;;1.10;;
72949;SDS011;64868;45.710;9.590;2023-05-16T04:53:07;3.65;;;1.20;;
72949;SDS011;64868;45.710;9.590;2023-05-16T04:55:35;4.53;;;1.00;;
72949;SDS011;64868;45.710;9.590;2023-05-16T04:58:05;3.60;;;0.85;;
72949;SDS011;64868;45.710;9.590;2023-05-16T05:00:37;5.38;;;1.00;;
72949;SDS011;64868;45.710;9.590;2023-05-16T05:03:10;3.00;;;0.80;;
72949;SDS011;64868;45.710;9.590;2023-05-16T05:05:40;5.15;;;1.00;;
72949;SDS011;64868;45.710;9.590;2023-05-16T05:08:13;2.80;;;0.80;;
72949;SDS011;64868;45.710;9.590;2023-05-16T05:10:46;2.22;;;0.73;;
72949;SDS011;64868;45.710;9.590;2023-05-16T05:13:18;3.80;;;1.02;;
72949;SDS011;64868;45.710;9.590;2023-05-16T05:15:51;3.75;;;1.17;;
72949;SDS011;64868;45.710;9.590;2023-05-16T05:18:23;2.70;;;0.73;;
72949;SDS011;64868;45.710;9.590;2023-05-16T05:20:56;5.38;;;1.00;;
72949;SDS011;64868;45.710;9.590;2023-05-16T05:23:29;6.35;;;0.70;;
72949;SDS011;64868;45.710;9.590;2023-05-16T05:26:01;2.60;;;0.85;;
72949;SDS011;64868;45.710;9.590;2023-05-16T05:28:31;4.20;;;0.75;;
72949;SDS011;64868;45.710;9.590;2023-05-16T05:31:04;6.78;;;0.80;;
72949;SDS011;64868;45.710;9.590;2023-05-16T05:33:34;4.43;;;0.90;;
72949;SDS011;64868;45.710;9.590;2023-05-16T05:36:07;3.03;;;0.90;;
72949;SDS011;64868;45.710;9.590;2023-05-16T05:38:39;3.97;;;0.90;;
72949;SDS011;64868;45.710;9.590;2023-05-16T05:41:12;3.00;;;0.70;;
72949;SDS011;64868;45.710;9.590;2023-05-16T05:43:40;3.35;;;0.88;;
72949;SDS011;64868;45.710;9.590;2023-05-16T05:46:13;4.28;;;0.90;;
72949;SDS011;64868;45.710;9.590;2023-05-16T05:48:43;6.47;;;0.77;;
72949;SDS011;64868;45.710;9.590;2023-05-16T05:51:16;3.30;;;0.77;;
72949;SDS011;64868;45.710;9.590;2023-05-16T05:53:43;3.80;;;1.08;;
72949;SDS011;64868;45.710;9.590;2023-05-16T05:56:16;2.65;;;0.88;;
72949;SDS011;64868;45.710;9.590;2023-05-16T05:58:49;2.72;;;0.80;;
72949;SDS011;64868;45.710;9.590;2023-05-16T06:01:20;6.70;;;0.82;;
72949;SDS011;64868;45.710;9.590;2023-05-16T06:03:52;2.88;;;0.80;;
72949;SDS011;64868;45.710;9.590;2023-05-16T06:06:25;4.97;;;0.82;;
72949;SDS011;64868;45.710;9.590;2023-05-16T06:08:55;3.42;;;0.80;;
72949;SDS011;64868;45.710;9.590;2023-05-16T06:11:27;3.33;;;1.00;;
72949;SDS011;64868;45.710;9.590;2023-05-16T06:14:00;2.97;;;0.80;;
72949;SDS011;64868;45.710;9.590;2023-05-16T06:16:28;3.63;;;0.90;;
72949;SDS011;64868;45.710;9.590;2023-05-16T06:19:00;4.07;;;0.85;;
72949;SDS011;64868;45.710;9.590;2023-05-16T06:21:33;4.18;;;0.90;;
72949;SDS011;64868;45.710;9.590;2023-05-16T06:24:05;4.72;;;1.20;;
72949;SDS011;64868;45.710;9.590;2023-05-16T06:26:38;3.38;;;1.10;;
72949;SDS011;64868;45.710;9.590;2023-05-16T06:29:08;2.85;;;0.88;;
72949;SDS011;64868;45.710;9.590;2023-05-16T06:31:41;4.03;;;0.90;;
72949;SDS011;64868;45.710;9.590;2023-05-16T06:34:09;2.65;;;0.90;;
72949;SDS011;64868;45.710;9.590;2023-05-16T06:36:39;5.15;;;0.98;;
72949;SDS011;64868;45.710;9.590;2023-05-16T06:39:11;3.33;;;0.90;;
72949;SDS011;64868;45.710;9.590;2023-05-16T06:41:44;4.45;;;1.00;;
72949;SDS011;64868;45.710;9.590;2023-05-16T06:44:17;3.65;;;1.02;;
72949;SDS011;64868;45.710;9.590;2023-05-16T06:46:45;4.93;;;0.93;;
72949;SDS011;64868;45.710;9.590;2023-05-16T06:49:17;3.22;;;0.90;;
72949;SDS011;64868;45.710;9.590;2023-05-16T06:51:50;4.13;;;0.98;;
72949;SDS011;64868;45.710;9.590;2023-05-16T06:54:22;3.00;;;0.90;;
72949;SDS011;64868;45.710;9.590;2023-05-16T06:56:52;5.90;;;1.30;;
72949;SDS011;64868;45.710;9.590;2023-05-16T06:59:22;17.88;;;2.60;;
72949;SDS011;64868;45.710;9.590;2023-05-16T07:01:55;31.88;;;3.08;;
72949;SDS011;64868;45.710;9.590;2023-05-16T07:04:28;13.48;;;1.65;;
72949;SDS011;64868;45.710;9.590;2023-05-16T07:07:00;10.13;;;1.55;;
72949;SDS011;64868;45.710;9.590;2023-05-16T07:09:33;5.78;;;1.30;;
72949;SDS011;64868;45.710;9.590;2023-05-16T07:12:01;5.57;;;1.75;;
72949;SDS011;64868;45.710;9.590;2023-05-16T07:14:34;6.40;;;1.77;;
72949;SDS011;64868;45.710;9.590;2023-05-16T07:17:06;6.68;;;1.80;;
72949;SDS011;64868;45.710;9.590;2023-05-16T07:19:39;6.35;;;2.00;;
72949;SDS011;64868;45.710;9.590;2023-05-16T07:22:09;9.60;;;2.25;;
72949;SDS011;64868;45.710;9.590;2023-05-16T07:24:42;5.25;;;1.95;;
72949;SDS011;64868;45.710;9.590;2023-05-16T07:27:15;6.78;;;2.40;;
72949;SDS011;64868;45.710;9.590;2023-05-16T07:29:45;7.70;;;2.08;;
72949;SDS011;64868;45.710;9.590;2023-05-16T07:32:18;6.38;;;2.00;;
72949;SDS011;64868;45.710;9.590;2023-05-16T07:34:50;7.78;;;2.30;;
72949;SDS011;64868;45.710;9.590;2023-05-16T07:37:23;6.13;;;2.20;;
72949;SDS011;64868;45.710;9.590;2023-05-16T07:39:55;6.30;;;1.80;;
72949;SDS011;64868;45.710;9.590;2023-05-16T07:42:28;6.57;;;2.33;;
72949;SDS011;64868;45.710;9.590;2023-05-16T07:45:01;6.30;;;2.22;;
72949;SDS011;64868;45.710;9.590;2023-05-16T07:47:33;7.25;;;2.38;;
72949;SDS011;64868;45.710;9.590;2023-05-16T07:50:06;7.78;;;2.60;;
72949;SDS011;64868;45.710;9.590;2023-05-16T07:52:36;7.38;;;2.60;;
72949;SDS011;64868;45.710;9.590;2023-05-16T07:55:10;7.20;;;2.85;;
72949;SDS011;64868;45.710;9.590;2023-05-16T07:57:42;6.75;;;2.97;;
72949;SDS011;64868;45.710;9.590;2023-05-16T08:00:13;6.10;;;3.10;;
72949;SDS011;64868;45.710;9.590;2023-05-16T08:02:44;9.20;;;3.35;;
72949;SDS011;64868;45.710;9.590;2023-05-16T08:05:16;9.60;;;3.35;;
72949;SDS011;64868;45.710;9.590;2023-05-16T08:07:46;10.00;;;2.75;;
72949;SDS011;64868;45.710;9.590;2023-05-16T08:10:14;7.63;;;3.50;;
72949;SDS011;64868;45.710;9.590;2023-05-16T08:12:47;7.72;;;3.22;;
72949;SDS011;64868;45.710;9.590;2023-05-16T08:15:20;7.10;;;3.22;;
72949;SDS011;64868;45.710;9.590;2023-05-16T08:17:50;8.40;;;3.30;;
72949;SDS011;64868;45.710;9.590;2023-05-16T08:20:20;10.05;;;3.53;;
72949;SDS011;64868;45.710;9.590;2023-05-16T08:22:51;7.55;;;3.33;;
72949;SDS011;64868;45.710;9.590;2023-05-16T08:25:21;8.07;;;3.30;;
72949;SDS011;64868;45.710;9.590;2023-05-16T08:27:51;8.52;;;2.92;;
72949;SDS011;64868;45.710;9.590;2023-05-16T08:30:23;16.05;;;3.80;;
72949;SDS011;64868;45.710;9.590;2023-05-16T08:32:56;7.53;;;3.38;;
72949;SDS011;64868;45.710;9.590;2023-05-16T08:35:31;10.20;;;3.78;;
72949;SDS011;64868;45.710;9.590;2023-05-16T08:37:59;7.47;;;2.92;;
72949;SDS011;64868;45.710;9.590;2023-05-16T08:40:29;8.77;;;4.70;;
72949;SDS011;64868;45.710;9.590;2023-05-16T08:42:57;5.88;;;3.00;;
72949;SDS011;64868;45.710;9.590;2023-05-16T08:45:28;8.88;;;3.80;;
72949;SDS011;64868;45.710;9.590;2023-05-16T08:47:57;7.47;;;3.95;;
72949;SDS011;64868;45.710;9.590;2023-05-16T08:50:30;7.28;;;3.05;;
72949;SDS011;64868;45.710;9.590;2023-05-16T08:53:01;9.80;;;3.25;;
72949;SDS011;64868;45.710;9.590;2023-05-16T08:55:36;10.45;;;3.63;;
72949;SDS011;64868;45.710;9.590;2023-05-16T08:58:07;36.72;;;22.65;;
72949;SDS011;64868;45.710;9.590;2023-05-16T09:00:37;12.85;;;6.57;;
72949;SDS011;64868;45.710;9.590;2023-05-16T09:03:08;8.65;;;3.75;;
72949;SDS011;64868;45.710;9.590;2023-05-16T09:05:41;8.52;;;3.33;;
72949;SDS011;64868;45.710;9.590;2023-05-16T09:08:13;12.70;;;4.70;;
72949;SDS011;64868;45.710;9.590;2023-05-16T09:10:44;7.70;;;4.53;;
72949;SDS011;64868;45.710;9.590;2023-05-16T09:13:16;9.77;;;3.75;;
72949;SDS011;64868;45.710;9.590;2023-05-16T09:15:47;9.43;;;3.70;;
72949;SDS011;64868;45.710;9.590;2023-05-16T09:18:44;10.52;;;3.70;;
72949;SDS011;64868;45.710;9.590;2023-05-16T09:21:21;8.80;;;3.80;;
72949;SDS011;64868;45.710;9.590;2023-05-16T09:23:54;9.63;;;3.67;;
72949;SDS011;64868;45.710;9.590;2023-05-16T09:26:24;6.60;;;3.45;;
72949;SDS011;64868;45.710;9.590;2023-05-16T09:28:56;8.45;;;3.30;;
72949;SDS011;64868;45.710;9.590;2023-05-16T09:31:28;9.70;;;3.25;;
72949;SDS011;64868;45.710;9.590;2023-05-16T09:34:03;10.93;;;4.65;;
72949;SDS011;64868;45.710;9.590;2023-05-16T09:36:39;8.30;;;4.07;;
72949;SDS011;64868;45.710;9.590;2023-05-16T09:39:13;10.20;;;4.90;;
72949;SDS011;64868;45.710;9.590;2023-05-16T09:41:44;10.23;;;4.55;;
72949;SDS011;64868;45.710;9.590;2023-05-16T09:44:20;10.18;;;4.30;;
72949;SDS011;64868;45.710;9.590;2023-05-16T09:46:53;10.77;;;4.75;;
72949;SDS011;64868;45.710;9.590;2023-05-16T09:49:25;9.48;;;5.03;;
72949;SDS011;64868;45.710;9.590;2023-05-16T09:51:58;8.20;;;4.57;;
72949;SDS011;64868;45.710;9.590;2023-05-16T09:54:32;10.35;;;5.18;;
72949;SDS011;64868;45.710;9.590;2023-05-16T09:57:05;9.23;;;5.45;;
72949;SDS011;64868;45.710;9.590;2023-05-16T09:59:38;10.65;;;4.82;;
72949;SDS011;64868;45.710;9.590;2023-05-16T10:02:09;10.90;;;4.90;;
72949;SDS011;64868;45.710;9.590;2023-05-16T10:04:40;9.40;;;5.15;;
72949;SDS011;64868;45.710;9.590;2023-05-16T10:07:13;9.93;;;5.53;;
72949;SDS011;64868;45.710;9.590;2023-05-16T10:09:46;10.75;;;5.22;;
72949;SDS011;64868;45.710;9.590;2023-05-16T10:12:19;12.45;;;5.03;;
72949;SDS011;64868;45.710;9.590;2023-05-16T10:14:55;10.48;;;4.30;;
72949;SDS011;64868;45.710;9.590;2023-05-16T10:17:27;11.05;;;4.50;;
72949;SDS011;64868;45.710;9.590;2023-05-16T10:20:02;13.18;;;6.35;;
72949;SDS011;64868;45.710;9.590;2023-05-16T10:22:37;10.60;;;5.72;;
72949;SDS011;64868;45.710;9.590;2023-05-16T10:27:54;12.77;;;6.15;;
72949;SDS011;64868;45.710;9.590;2023-05-16T10:30:28;11.65;;;6.45;;
72949;SDS011;64868;45.710;9.590;2023-05-16T10:32:59;11.95;;;6.32;;
72949;SDS011;64868;45.710;9.590;2023-05-16T10:35:31;13.02;;;6.50;;
72949;SDS011;64868;45.710;9.590;2023-05-16T10:38:02;9.80;;;5.70;;
72949;SDS011;64868;45.710;9.590;2023-05-16T10:40:33;12.40;;;5.95;;
72949;SDS011;64868;45.710;9.590;2023-05-16T10:43:06;11.38;;;6.03;;
72949;SDS011;64868;45.710;9.590;2023-05-16T10:45:43;10.18;;;5.80;;
72949;SDS011;64868;45.710;9.590;2023-05-16T10:48:27;10.43;;;5.90;;
72949;SDS011;64868;45.710;9.590;2023-05-16T10:50:58;11.82;;;6.93;;
72949;SDS011;64868;45.710;9.590;2023-05-16T10:53:35;10.57;;;6.18;;
72949;SDS011;64868;45.710;9.590;2023-05-16T10:56:05;12.85;;;6.93;;
72949;SDS011;64868;45.710;9.590;2023-05-16T11:04:05;10.48;;;5.30;;
72949;SDS011;64868;45.710;9.590;2023-05-16T11:06:45;10.60;;;5.70;;
72949;SDS011;64868;45.710;9.590;2023-05-16T11:09:20;9.70;;;5.90;;
72949;SDS011;64868;45.710;9.590;2023-05-16T11:11:54;11.27;;;7.03;;
72949;SDS011;64868;45.710;9.590;2023-05-16T11:17:03;12.25;;;5.82;;
72949;SDS011;64868;45.710;9.590;2023-05-16T11:22:24;9.32;;;6.90;;
72949;SDS011;64868;45.710;9.590;2023-05-16T11:25:00;11.35;;;6.35;;
72949;SDS011;64868;45.710;9.590;2023-05-16T11:27:33;10.93;;;5.80;;
72949;SDS011;64868;45.710;9.590;2023-05-16T11:32:45;11.88;;;6.80;;
72949;SDS011;64868;45.710;9.590;2023-05-16T11:35:17;10.43;;;5.13;;
72949;SDS011;64868;45.710;9.590;2023-05-16T11:37:46;10.85;;;6.50;;
72949;SDS011;64868;45.710;9.590;2023-05-16T11:40:12;10.80;;;6.80;;
72949;SDS011;64868;45.710;9.590;2023-05-16T11:42:45;11.52;;;6.07;;
72949;SDS011;64868;45.710;9.590;2023-05-16T11:45:17;10.82;;;6.05;;
72949;SDS011;64868;45.710;9.590;2023-05-16T11:47:48;11.32;;;7.78;;
72949;SDS011;64868;45.710;9.590;2023-05-16T11:50:20;14.77;;;7.45;;
72949;SDS011;64868;45.710;9.590;2023-05-16T11:52:55;11.95;;;6.13;;
72949;SDS011;64868;45.710;9.590;2023-05-16T11:55:28;13.68;;;8.73;;
72949;SDS011;64868;45.710;9.590;2023-05-16T11:57:58;9.82;;;7.20;;
72949;SDS011;64868;45.710;9.590;2023-05-16T12:00:31;9.25;;;6.45;;
72949;SDS011;64868;45.710;9.590;2023-05-16T12:03:00;9.63;;;5.15;;
72949;SDS011;64868;45.710;9.590;2023-05-16T12:05:33;9.77;;;7.15;;
72949;SDS011;64868;45.710;9.590;2023-05-16T12:08:06;11.25;;;6.15;;
72949;SDS011;64868;45.710;9.590;2023-05-16T12:10:41;11.60;;;5.97;;
72949;SDS011;64868;45.710;9.590;2023-05-16T12:13:08;11.73;;;7.45;;
72949;SDS011;64868;45.710;9.590;2023-05-16T12:15:41;9.80;;;5.97;;
72949;SDS011;64868;45.710;9.590;2023-05-16T12:18:13;11.85;;;6.97;;
72949;SDS011;64868;45.710;9.590;2023-05-16T12:20:47;12.75;;;7.63;;
72949;SDS011;64868;45.710;9.590;2023-05-16T12:23:17;11.18;;;7.47;;
72949;SDS011;64868;45.710;9.590;2023-05-16T12:25:50;12.93;;;7.88;;
72949;SDS011;64868;45.710;9.590;2023-05-16T12:28:20;11.63;;;7.25;;
72949;SDS011;64868;45.710;9.590;2023-05-16T12:30:52;12.38;;;7.45;;
72949;SDS011;64868;45.710;9.590;2023-05-16T12:33:26;11.45;;;7.68;;
72949;SDS011;64868;45.710;9.590;2023-05-16T12:35:58;12.25;;;8.32;;
72949;SDS011;64868;45.710;9.590;2023-05-16T12:38:31;10.88;;;6.97;;
72949;SDS011;64868;45.710;9.590;2023-05-16T12:41:03;17.15;;;9.00;;
72949;SDS011;64868;45.710;9.590;2023-05-16T12:43:36;13.48;;;8.05;;
72949;SDS011;64868;45.710;9.590;2023-05-16T12:46:08;12.05;;;7.70;;
72949;SDS011;64868;45.710;9.590;2023-05-16T12:48:42;11.18;;;7.72;;
72949;SDS011;64868;45.710;9.590;2023-05-16T12:51:14;13.18;;;7.88;;
72949;SDS011;64868;45.710;9.590;2023-05-16T12:53:47;11.10;;;6.55;;
72949;SDS011;64868;45.710;9.590;2023-05-16T12:56:19;12.32;;;7.50;;
72949;SDS011;64868;45.710;9.590;2023-05-16T12:58:52;12.70;;;7.72;;
72949;SDS011;64868;45.710;9.590;2023-05-16T13:01:20;9.95;;;6.00;;
72949;SDS011;64868;45.710;9.590;2023-05-16T13:03:50;15.85;;;7.18;;
72949;SDS011;64868;45.710;9.590;2023-05-16T13:06:20;17.08;;;9.15;;
72949;SDS011;64868;45.710;9.590;2023-05-16T13:08:51;17.58;;;8.95;;
72949;SDS011;64868;45.710;9.590;2023-05-16T13:11:21;17.67;;;8.82;;
72949;SDS011;64868;45.710;9.590;2023-05-16T13:13:52;13.13;;;8.52;;
72949;SDS011;64868;45.710;9.590;2023-05-16T13:16:24;13.80;;;7.93;;
72949;SDS011;64868;45.710;9.590;2023-05-16T13:18:52;12.20;;;8.25;;
72949;SDS011;64868;45.710;9.590;2023-05-16T13:21:25;10.15;;;6.70;;
72949;SDS011;64868;45.710;9.590;2023-05-16T13:23:55;10.35;;;6.75;;
72949;SDS011;64868;45.710;9.590;2023-05-16T13:26:25;11.27;;;7.20;;
72949;SDS011;64868;45.710;9.590;2023-05-16T13:28:56;10.95;;;7.50;;
72949;SDS011;64868;45.710;9.590;2023-05-16T13:31:28;13.38;;;7.18;;
72949;SDS011;64868;45.710;9.590;2023-05-16T13:34:01;11.05;;;7.05;;
72949;SDS011;64868;45.710;9.590;2023-05-16T13:36:33;12.18;;;7.55;;
72949;SDS011;64868;45.710;9.590;2023-05-16T13:39:03;11.75;;;6.97;;
72949;SDS011;64868;45.710;9.590;2023-05-16T13:41:36;11.23;;;6.57;;
72949;SDS011;64868;45.710;9.590;2023-05-16T13:44:09;10.48;;;6.32;;
72949;SDS011;64868;45.710;9.590;2023-05-16T13:46:39;12.20;;;6.78;;
72949;SDS011;64868;45.710;9.590;2023-05-16T13:49:11;9.65;;;5.90;;
72949;SDS011;64868;45.710;9.590;2023-05-16T13:51:44;11.48;;;6.50;;
72949;SDS011;64868;45.710;9.590;2023-05-16T13:54:17;10.05;;;6.65;;
72949;SDS011;64868;45.710;9.590;2023-05-16T13:56:49;11.48;;;7.00;;
72949;SDS011;64868;45.710;9.590;2023-05-16T13:59:20;11.25;;;6.65;;
72949;SDS011;64868;45.710;9.590;2023-05-16T14:01:50;11.75;;;7.43;;
72949;SDS011;64868;45.710;9.590;2023-05-16T14:04:20;11.38;;;7.60;;
72949;SDS011;64868;45.710;9.590;2023-05-16T14:06:53;14.38;;;7.50;;
72949;SDS011;64868;45.710;9.590;2023-05-16T14:09:25;11.48;;;6.18;;
72949;SDS011;64868;45.710;9.590;2023-05-16T14:11:58;11.60;;;6.15;;
72949;SDS011;64868;45.710;9.590;2023-05-16T14:14:34;10.43;;;6.28;;
72949;SDS011;64868;45.710;9.590;2023-05-16T14:17:02;10.65;;;5.47;;
72949;SDS011;64868;45.710;9.590;2023-05-16T14:19:35;14.07;;;6.57;;
72949;SDS011;64868;45.710;9.590;2023-05-16T14:22:08;9.25;;;6.00;;
72949;SDS011;64868;45.710;9.590;2023-05-16T14:24:41;10.35;;;6.38;;
72949;SDS011;64868;45.710;9.590;2023-05-16T14:27:08;10.60;;;6.88;;
72949;SDS011;64868;45.710;9.590;2023-05-16T14:29:41;10.43;;;6.10;;
72949;SDS011;64868;45.710;9.590;2023-05-16T14:32:14;11.88;;;6.55;;
72949;SDS011;64868;45.710;9.590;2023-05-16T14:34:46;9.18;;;6.18;;
72949;SDS011;64868;45.710;9.590;2023-05-16T14:37:16;9.43;;;5.82;;
72949;SDS011;64868;45.710;9.590;2023-05-16T14:39:46;12.38;;;6.13;;
72949;SDS011;64868;45.710;9.590;2023-05-16T14:42:19;13.63;;;6.00;;
72949;SDS011;64868;45.710;9.590;2023-05-16T14:44:49;8.68;;;5.18;;
72949;SDS011;64868;45.710;9.590;2023-05-16T14:47:19;10.80;;;6.13;;
72949;SDS011;64868;45.710;9.590;2023-05-16T14:49:47;10.25;;;6.50;;
72949;SDS011;64868;45.710;9.590;2023-05-16T14:52:20;10.27;;;6.78;;
72949;SDS011;64868;45.710;9.590;2023-05-16T14:54:52;14.73;;;6.57;;
72949;SDS011;64868;45.710;9.590;2023-05-16T14:57:22;10.75;;;5.60;;
72949;SDS011;64868;45.710;9.590;2023-05-16T14:59:52;11.77;;;6.13;;
72949;SDS011;64868;45.710;9.590;2023-05-16T15:02:23;10.25;;;6.22;;
72949;SDS011;64868;45.710;9.590;2023-05-16T15:04:50;10.07;;;5.78;;
72949;SDS011;64868;45.710;9.590;2023-05-16T15:07:18;9.93;;;5.80;;
72949;SDS011;64868;45.710;9.590;2023-05-16T15:09:51;9.25;;;5.95;;
72949;SDS011;64868;45.710;9.590;2023-05-16T15:12:21;9.90;;;6.25;;
72949;SDS011;64868;45.710;9.590;2023-05-16T15:14:49;9.15;;;5.90;;
72949;SDS011;64868;45.710;9.590;2023-05-16T15:17:22;9.32;;;5.63;;
72949;SDS011;64868;45.710;9.590;2023-05-16T15:19:52;9.88;;;5.53;;
72949;SDS011;64868;45.710;9.590;2023-05-16T15:22:24;8.40;;;5.40;;
72949;SDS011;64868;45.710;9.590;2023-05-16T15:24:52;11.13;;;5.70;;
72949;SDS011;64868;45.710;9.590;2023-05-16T15:27:22;9.52;;;5.50;;
72949;SDS011;64868;45.710;9.590;2023-05-16T15:29:53;9.75;;;5.40;;
72949;SDS011;64868;45.710;9.590;2023-05-16T15:32:24;8.93;;;4.82;;
72949;SDS011;64868;45.710;9.590;2023-05-16T15:34:56;9.27;;;5.57;;
72949;SDS011;64868;45.710;9.590;2023-05-16T15:37:27;9.70;;;5.10;;
72949;SDS011;64868;45.710;9.590;2023-05-16T15:39:59;8.93;;;4.80;;